createdAt,value
2023-01-15T00:01:39.437Z,3.72
2023-01-15T00:04:06.956Z,2.88
2023-01-15T00:06:38.770Z,3.70
2023-01-15T00:09:05.991Z,5.28
2023-01-15T00:11:32.655Z,5.03
2023-01-15T00:13:59.114Z,3.45
2023-01-15T00:16:26.746Z,2.78
2023-01-15T00:18:57.864Z,3.22
2023-01-15T00:21:25.709Z,4.15
2023-01-15T00:24:11.268Z,4.53
2023-01-15T00:26:56.991Z,3.30
2023-01-15T00:29:24.028Z,4.70
2023-01-15T00:31:53.649Z,5.03
2023-01-15T00:34:20.094Z,3.65
2023-01-15T00:36:46.446Z,5.38
2023-01-15T00:39:12.891Z,3.25
2023-01-15T00:41:39.286Z,2.90
2023-01-15T00:44:05.671Z,2.70
2023-01-15T00:46:32.150Z,2.67
2023-01-15T00:48:58.570Z,3.42
2023-01-15T00:51:24.972Z,1.65
2023-01-15T00:53:51.376Z,1.23
2023-01-15T00:56:17.738Z,3.92
2023-01-15T00:58:44.215Z,3.80
2023-01-15T01:01:10.768Z,3.67
2023-01-15T01:03:37.268Z,2.72
2023-01-15T01:06:04.029Z,3.25
2023-01-15T01:08:30.627Z,2.15
2023-01-15T01:11:08.369Z,0.98
2023-01-15T01:13:35.319Z,2.55
2023-01-15T01:16:02.025Z,1.70
2023-01-15T01:18:28.607Z,3.35
2023-01-15T01:20:55.042Z,2.42
2023-01-15T01:23:23.983Z,3.45
2023-01-15T01:25:50.775Z,2.35
2023-01-15T01:28:17.277Z,2.13
2023-01-15T01:30:43.651Z,2.00
2023-01-15T01:33:10.035Z,2.30
2023-01-15T01:35:36.412Z,2.97
2023-01-15T01:38:02.924Z,1.98
2023-01-15T01:40:29.308Z,1.27
2023-01-15T01:42:55.707Z,2.92
2023-01-15T01:45:28.731Z,3.90
2023-01-15T01:48:00.005Z,1.80
2023-01-15T01:50:27.627Z,3.25
2023-01-15T01:52:56.524Z,2.20
2023-01-15T01:55:24.113Z,1.83
2023-01-15T01:57:52.220Z,1.65
2023-01-15T02:00:19.439Z,0.93
2023-01-15T02:02:47.282Z,3.38
2023-01-15T02:05:16.029Z,2.83
2023-01-15T02:07:42.503Z,2.83
2023-01-15T02:10:16.340Z,2.10
2023-01-15T02:12:46.720Z,2.67
2023-01-15T02:15:19.507Z,2.15
2023-01-15T02:17:55.767Z,6.05
2023-01-15T02:20:46.920Z,1.15
2023-01-15T02:23:34.637Z,2.83
2023-01-15T02:26:16.133Z,2.83
2023-01-15T02:28:45.321Z,3.00
2023-01-15T02:31:30.852Z,2.25
2023-01-15T02:34:05.046Z,3.40
2023-01-15T02:36:37.155Z,5.03
2023-01-15T02:39:07.328Z,3.67
2023-01-15T02:41:38.599Z,4.13
2023-01-15T02:44:05.499Z,2.47
2023-01-15T02:46:34.450Z,3.20
2023-01-15T02:49:02.975Z,3.92
2023-01-15T02:51:37.415Z,3.35
2023-01-15T02:54:06.703Z,1.58
2023-01-15T02:56:35.831Z,3.28
2023-01-15T02:59:06.441Z,2.40
2023-01-15T03:01:37.695Z,2.40
2023-01-15T03:04:16.637Z,2.92
2023-01-15T03:06:50.201Z,4.20
2023-01-15T03:09:17.474Z,1.33
2023-01-15T03:11:47.567Z,1.55
2023-01-15T03:14:24.352Z,3.88
2023-01-15T03:16:54.191Z,4.25
2023-01-15T03:19:27.308Z,4.03
2023-01-15T03:22:00.786Z,3.97
2023-01-15T03:24:40.345Z,2.08
2023-01-15T03:27:07.122Z,2.55
2023-01-15T03:29:38.334Z,4.70
2023-01-15T03:32:04.983Z,4.00
2023-01-15T03:34:43.006Z,1.27
2023-01-15T03:37:09.417Z,5.70
2023-01-15T03:39:35.825Z,3.65
2023-01-15T03:42:10.937Z,3.92
2023-01-15T03:44:52.465Z,3.38
2023-01-15T03:48:05.727Z,2.58
2023-01-15T03:50:50.037Z,3.42
2023-01-15T03:53:21.017Z,5.20
2023-01-15T03:55:54.263Z,2.90
2023-01-15T03:58:29.886Z,2.55
2023-01-15T04:00:59.821Z,4.30
2023-01-15T04:03:28.049Z,4.00
2023-01-15T04:05:59.506Z,4.80
2023-01-15T04:08:28.186Z,5.47
2023-01-15T04:10:56.659Z,7.95
2023-01-15T04:13:23.975Z,4.13
2023-01-15T04:15:51.014Z,1.85
2023-01-15T04:18:17.816Z,3.67
2023-01-15T04:20:44.510Z,5.88
2023-01-15T04:23:10.927Z,5.00
2023-01-15T04:25:37.430Z,3.30
2023-01-15T04:28:04.102Z,5.80
2023-01-15T04:30:30.674Z,6.53
2023-01-15T04:32:57.320Z,8.85
2023-01-15T04:35:23.730Z,3.67
2023-01-15T04:37:54.676Z,8.88
2023-01-15T04:40:39.595Z,6.57
2023-01-15T04:43:24.707Z,6.97
2023-01-15T04:45:51.232Z,4.63
2023-01-15T04:48:17.652Z,8.57
2023-01-15T04:50:44.047Z,5.32
2023-01-15T04:53:10.441Z,5.38
2023-01-15T04:55:36.838Z,8.23
2023-01-15T04:58:03.255Z,7.90
2023-01-15T05:00:29.657Z,5.50
2023-01-15T05:02:56.111Z,6.25
2023-01-15T05:05:22.591Z,5.10
2023-01-15T05:07:48.988Z,14.63
2023-01-15T05:10:15.556Z,8.73
2023-01-15T05:12:41.988Z,6.32
2023-01-15T05:15:08.782Z,9.00
2023-01-15T05:17:35.200Z,5.65
2023-01-15T05:20:01.927Z,5.97
2023-01-15T05:22:28.300Z,6.22
2023-01-15T05:24:54.706Z,8.75
2023-01-15T05:27:21.125Z,5.47
2023-01-15T05:29:47.909Z,6.57
2023-01-15T05:32:17.373Z,7.07
2023-01-15T05:34:43.752Z,9.60
2023-01-15T05:37:10.147Z,6.85
2023-01-15T05:39:36.563Z,5.07
2023-01-15T05:42:03.320Z,6.70
2023-01-15T05:44:30.371Z,8.75
2023-01-15T05:47:00.037Z,11.45
2023-01-15T05:49:28.207Z,8.27
2023-01-15T05:51:55.562Z,7.22
2023-01-15T05:54:24.524Z,10.38
2023-01-15T05:56:51.508Z,12.25
2023-01-15T05:59:19.754Z,10.55
2023-01-15T06:01:46.202Z,7.95
2023-01-15T06:04:14.242Z,9.52
2023-01-15T06:06:41.915Z,11.75
2023-01-15T06:09:08.306Z,11.25
2023-01-15T06:11:34.694Z,7.45
2023-01-15T06:14:01.100Z,8.10
2023-01-15T06:16:27.523Z,8.93
2023-01-15T06:18:54.261Z,11.30
2023-01-15T06:21:21.177Z,9.13
2023-01-15T06:23:47.617Z,7.82
2023-01-15T06:26:17.602Z,8.85
2023-01-15T06:28:44.896Z,7.50
2023-01-15T06:31:14.279Z,6.72
2023-01-15T06:33:40.803Z,4.60
2023-01-15T06:36:15.389Z,11.48
2023-01-15T06:38:42.598Z,8.90
2023-01-15T06:41:31.576Z,9.05
2023-01-15T06:44:16.675Z,9.13
2023-01-15T06:47:06.987Z,9.63
2023-01-15T06:49:34.421Z,7.30
2023-01-15T06:52:01.097Z,10.52
2023-01-15T06:54:27.605Z,6.30
2023-01-15T06:56:53.993Z,11.40
2023-01-15T06:59:20.642Z,5.25
2023-01-15T07:01:47.160Z,7.93
2023-01-15T07:04:14.704Z,9.20
2023-01-15T07:06:41.218Z,9.88
2023-01-15T07:09:07.667Z,10.20
2023-01-15T07:11:34.021Z,7.05
2023-01-15T07:14:06.249Z,10.70
2023-01-15T07:16:33.770Z,7.25
2023-01-15T07:19:00.948Z,8.70
2023-01-15T07:21:27.401Z,9.60
2023-01-15T07:23:54.798Z,5.38
2023-01-15T07:26:21.175Z,10.18
2023-01-15T07:28:47.850Z,4.45
2023-01-15T07:31:14.320Z,7.80
2023-01-15T07:33:40.741Z,11.00
2023-01-15T07:36:07.407Z,9.25
2023-01-15T07:38:33.835Z,11.90
2023-01-15T07:41:26.869Z,9.82
2023-01-15T07:44:11.895Z,9.48
2023-01-15T07:46:57.012Z,5.75
2023-01-15T07:49:42.028Z,11.98
2023-01-15T07:52:08.450Z,12.13
2023-01-15T07:54:34.885Z,9.73
2023-01-15T07:57:01.323Z,10.32
2023-01-15T07:59:27.756Z,7.85
2023-01-15T08:01:54.240Z,9.98
2023-01-15T08:04:20.746Z,9.82
2023-01-15T08:06:47.158Z,10.98
2023-01-15T08:09:13.587Z,9.27
2023-01-15T08:11:58.752Z,8.20
2023-01-15T08:14:43.613Z,4.93
2023-01-15T08:17:09.978Z,7.78
2023-01-15T08:19:36.413Z,10.52
2023-01-15T08:22:02.818Z,13.95
2023-01-15T08:24:29.431Z,14.35
2023-01-15T08:26:55.891Z,8.88
2023-01-15T08:29:22.591Z,6.15
2023-01-15T08:31:48.984Z,10.45
2023-01-15T08:34:15.402Z,8.55
2023-01-15T08:36:41.847Z,7.10
2023-01-15T08:39:08.240Z,9.73
2023-01-15T08:41:34.650Z,9.23
2023-01-15T08:44:01.430Z,9.45
2023-01-15T08:46:27.865Z,8.50
2023-01-15T08:48:54.259Z,7.28
2023-01-15T08:51:20.657Z,10.57
2023-01-15T08:53:47.043Z,9.57
2023-01-15T08:56:14.734Z,9.27
2023-01-15T08:58:41.111Z,8.98
2023-01-15T09:01:09.283Z,10.38
2023-01-15T09:03:35.991Z,8.35
2023-01-15T09:06:03.102Z,9.25
2023-01-15T09:08:29.838Z,12.75
2023-01-15T09:11:00.215Z,7.68
2023-01-15T09:13:27.429Z,8.70
2023-01-15T09:15:53.837Z,7.43
2023-01-15T09:18:20.560Z,8.57
2023-01-15T09:20:47.660Z,10.38
2023-01-15T09:23:14.665Z,5.43
2023-01-15T09:25:42.312Z,9.65
2023-01-15T09:28:08.894Z,7.30
2023-01-15T09:30:35.422Z,6.85
2023-01-15T09:33:01.843Z,11.90
2023-01-15T09:35:28.221Z,6.18
2023-01-15T09:37:54.832Z,8.50
2023-01-15T09:40:32.285Z,9.73
2023-01-15T09:43:05.187Z,6.28
2023-01-15T09:45:41.156Z,9.15
2023-01-15T09:48:50.387Z,10.35
2023-01-15T09:51:26.415Z,7.57
2023-01-15T09:54:05.398Z,5.90
2023-01-15T09:56:33.473Z,6.18
2023-01-15T09:59:01.774Z,4.03
2023-01-15T10:01:30.825Z,7.10
2023-01-15T10:04:02.162Z,9.77
2023-01-15T10:06:43.303Z,7.15
2023-01-15T10:09:21.360Z,8.95
2023-01-15T10:12:13.511Z,7.40
2023-01-15T10:14:45.665Z,8.20
2023-01-15T10:17:19.286Z,6.20
2023-01-15T10:19:45.651Z,5.60
2023-01-15T10:22:20.671Z,8.10
2023-01-15T10:24:56.133Z,9.90
2023-01-15T10:27:23.977Z,8.05
2023-01-15T10:29:55.746Z,8.52
2023-01-15T10:32:24.066Z,8.63
2023-01-15T10:35:15.352Z,7.20
2023-01-15T10:37:58.596Z,8.68
2023-01-15T10:40:51.019Z,7.55
2023-01-15T10:43:24.581Z,6.82
2023-01-15T10:45:55.491Z,6.63
2023-01-15T10:48:28.514Z,4.75
2023-01-15T10:50:55.680Z,8.40
2023-01-15T10:53:35.231Z,7.60
2023-01-15T10:56:13.820Z,10.95
2023-01-15T10:58:45.716Z,6.55
2023-01-15T11:01:19.533Z,3.20
2023-01-15T11:03:46.100Z,6.55
2023-01-15T11:06:16.069Z,6.55
2023-01-15T11:11:50.265Z,4.60
2023-01-15T11:14:35.160Z,5.93
2023-01-15T11:17:08.187Z,5.72
2023-01-15T11:19:37.724Z,5.95
2023-01-15T11:22:12.737Z,5.72
2023-01-15T11:24:52.636Z,7.15
2023-01-15T11:27:21.899Z,5.53
2023-01-15T11:29:56.649Z,6.80
2023-01-15T11:32:33.738Z,6.78
2023-01-15T11:35:02.239Z,5.97
2023-01-15T11:37:29.247Z,5.10
2023-01-15T11:39:57.505Z,4.93
2023-01-15T11:42:42.745Z,5.13
2023-01-15T11:45:35.007Z,3.30
2023-01-15T11:48:20.578Z,5.93
2023-01-15T11:50:50.379Z,3.58
2023-01-15T11:53:19.671Z,8.93
2023-01-15T11:56:01.808Z,4.32
2023-01-15T11:58:31.464Z,8.13
2023-01-15T12:01:00.807Z,6.97
2023-01-15T12:03:29.601Z,5.45
2023-01-15T12:05:59.841Z,3.50
2023-01-15T12:08:51.494Z,5.03
2023-01-15T12:11:34.602Z,7.82
2023-01-15T12:14:04.433Z,6.13
2023-01-15T12:16:56.534Z,7.82
2023-01-15T12:19:30.928Z,5.80
2023-01-15T12:22:22.422Z,5.47
2023-01-15T12:24:55.849Z,7.80
2023-01-15T12:27:37.457Z,11.80
2023-01-15T12:30:12.771Z,6.20
2023-01-15T12:32:46.165Z,7.82
2023-01-15T12:35:32.676Z,5.97
2023-01-15T12:38:31.135Z,6.45
2023-01-15T12:41:07.975Z,6.63
2023-01-15T12:43:53.022Z,7.68
2023-01-15T12:46:23.325Z,6.32
2023-01-15T12:48:54.474Z,6.47
2023-01-15T12:51:26.869Z,5.60
2023-01-15T12:53:57.403Z,8.20
2023-01-15T12:56:29.068Z,5.78
2023-01-15T12:59:16.828Z,8.10
2023-01-15T13:02:11.350Z,5.07
2023-01-15T13:04:48.661Z,6.50
2023-01-15T13:07:40.110Z,7.88
2023-01-15T13:10:17.964Z,4.43
2023-01-15T13:12:44.333Z,5.85
2023-01-15T13:15:17.532Z,4.70
2023-01-15T13:18:12.615Z,6.10
2023-01-15T13:20:47.967Z,9.07
2023-01-15T13:23:23.884Z,5.35
2023-01-15T13:26:19.946Z,6.80
2023-01-15T13:29:18.578Z,6.63
2023-01-15T13:32:20.430Z,8.35
2023-01-15T13:35:10.289Z,5.68
2023-01-15T13:37:49.877Z,3.58
2023-01-15T13:40:35.532Z,6.82
2023-01-15T13:43:03.237Z,8.55
2023-01-15T13:45:36.890Z,7.90
2023-01-15T13:48:07.107Z,7.20
2023-01-15T13:50:37.128Z,5.05
2023-01-15T13:53:12.709Z,5.38
2023-01-15T13:55:40.801Z,7.38
2023-01-15T13:58:26.057Z,8.45
2023-01-15T14:01:17.535Z,4.07
2023-01-15T14:03:55.803Z,7.07
2023-01-15T14:06:22.184Z,5.85
2023-01-15T14:08:49.457Z,8.13
2023-01-15T14:11:35.606Z,8.18
2023-01-15T14:14:18.286Z,6.95
2023-01-15T14:19:36.463Z,6.57
2023-01-15T14:22:25.074Z,4.70
2023-01-15T14:24:54.287Z,7.75
2023-01-15T14:27:54.363Z,6.57
2023-01-15T14:31:08.896Z,5.85
2023-01-15T14:33:52.270Z,8.35
2023-01-15T14:36:23.077Z,6.40
2023-01-15T14:38:52.820Z,7.85
2023-01-15T14:41:26.726Z,7.70
2023-01-15T14:43:53.529Z,5.70
2023-01-15T14:46:34.136Z,5.13
2023-01-15T14:49:03.816Z,6.03
2023-01-15T14:51:36.960Z,6.72
2023-01-15T14:54:08.233Z,7.13
2023-01-15T14:56:37.161Z,5.30
2023-01-15T14:59:25.854Z,5.35
2023-01-15T15:01:55.984Z,6.40
2023-01-15T15:04:30.278Z,3.92
2023-01-15T15:06:58.980Z,3.70
2023-01-15T15:09:29.148Z,2.70
2023-01-15T15:12:18.928Z,7.28
2023-01-15T15:14:49.289Z,8.23
2023-01-15T15:17:32.464Z,3.47
2023-01-15T15:20:24.934Z,5.30
2023-01-15T15:22:55.243Z,6.57
2023-01-15T15:25:24.202Z,4.72
2023-01-15T15:28:04.395Z,5.25
2023-01-15T15:30:33.120Z,5.63
2023-01-15T15:33:00.304Z,6.18
2023-01-15T15:35:29.582Z,5.75
2023-01-15T15:37:58.108Z,3.25
2023-01-15T15:40:30.765Z,5.85
2023-01-15T15:43:39.392Z,3.88
2023-01-15T15:46:24.402Z,8.02
2023-01-15T15:48:57.065Z,3.70
2023-01-15T15:51:35.574Z,4.35
2023-01-15T15:54:26.818Z,6.07
2023-01-15T15:57:00.924Z,8.45
2023-01-15T15:59:37.913Z,5.05
2023-01-15T16:02:15.104Z,4.90
2023-01-15T16:04:49.213Z,9.68
2023-01-15T16:07:26.020Z,7.82
2023-01-15T16:09:56.428Z,4.93
2023-01-15T16:12:23.448Z,8.95
2023-01-15T16:14:50.876Z,6.00
2023-01-15T16:17:17.488Z,3.97
2023-01-15T16:19:44.267Z,5.38
2023-01-15T16:22:15.909Z,3.90
2023-01-15T16:24:53.077Z,3.70
2023-01-15T16:27:21.738Z,5.05
2023-01-15T16:29:50.679Z,5.53
2023-01-15T16:32:24.193Z,3.72
2023-01-15T16:35:04.731Z,7.63
2023-01-15T16:37:31.459Z,3.20
2023-01-15T16:39:59.311Z,4.47
2023-01-15T16:42:31.596Z,8.48
2023-01-15T16:45:01.576Z,6.55
2023-01-15T16:47:29.909Z,7.00
2023-01-15T16:50:22.290Z,5.72
2023-01-15T16:52:52.258Z,3.90
2023-01-15T16:55:33.731Z,4.65
2023-01-15T16:58:12.193Z,2.78
2023-01-15T17:00:39.773Z,3.80
2023-01-15T17:03:13.856Z,3.53
2023-01-15T17:05:40.543Z,8.00
2023-01-15T17:08:15.811Z,6.85
2023-01-15T17:10:52.721Z,6.32
2023-01-15T17:13:19.735Z,5.68
2023-01-15T17:15:46.211Z,4.28
2023-01-15T17:18:22.077Z,6.97
2023-01-15T17:20:48.519Z,4.53
2023-01-15T17:23:15.016Z,3.83
2023-01-15T17:25:41.496Z,5.10
2023-01-15T17:28:12.467Z,6.22
2023-01-15T17:30:38.841Z,3.00
2023-01-15T17:33:06.847Z,4.78
2023-01-15T17:35:36.056Z,4.10
2023-01-15T17:38:02.868Z,4.78
2023-01-15T17:40:29.248Z,3.25
2023-01-15T17:42:55.641Z,4.13
2023-01-15T17:45:30.601Z,3.50
2023-01-15T17:47:57.082Z,3.67
2023-01-15T17:50:24.380Z,5.25
2023-01-15T17:52:51.527Z,3.45
2023-01-15T17:55:39.389Z,4.75
2023-01-15T17:58:24.527Z,7.32
2023-01-15T18:01:11.597Z,4.97
2023-01-15T18:04:22.454Z,3.30
2023-01-15T18:06:51.913Z,4.13
2023-01-15T18:09:19.472Z,5.05
2023-01-15T18:11:46.102Z,4.13
2023-01-15T18:14:12.851Z,5.70
2023-01-15T18:16:39.273Z,5.18
2023-01-15T18:19:05.671Z,4.65
2023-01-15T18:21:32.050Z,4.68
2023-01-15T18:23:59.820Z,3.08
2023-01-15T18:26:26.307Z,4.00
2023-01-15T18:28:52.866Z,5.32
2023-01-15T18:31:19.425Z,3.88
2023-01-15T18:33:45.877Z,3.47
2023-01-15T18:36:14.253Z,3.97
2023-01-15T18:38:47.380Z,3.97
2023-01-15T18:41:34.495Z,3.22
2023-01-15T18:44:26.825Z,3.50
2023-01-15T18:46:55.991Z,3.50
2023-01-15T18:49:22.384Z,7.70
2023-01-15T18:52:08.734Z,5.25
2023-01-15T18:54:36.076Z,5.82
2023-01-15T18:57:02.724Z,4.32
2023-01-15T18:59:29.121Z,4.68
2023-01-15T19:01:56.481Z,4.85
2023-01-15T19:04:22.977Z,3.35
2023-01-15T19:06:49.370Z,3.65
2023-01-15T19:09:16.756Z,3.72
2023-01-15T19:11:44.047Z,4.82
2023-01-15T19:14:29.096Z,2.95
2023-01-15T19:17:14.423Z,3.97
2023-01-15T19:19:43.136Z,4.78
2023-01-15T19:22:29.284Z,5.07
2023-01-15T19:24:55.664Z,7.18
2023-01-15T19:27:22.095Z,6.03
2023-01-15T19:29:48.469Z,4.43
2023-01-15T19:32:15.068Z,5.25
2023-01-15T19:34:41.566Z,4.97
2023-01-15T19:37:08.076Z,6.05
2023-01-15T19:39:34.475Z,6.68
2023-01-15T19:42:19.479Z,6.10
2023-01-15T19:45:04.490Z,6.30
2023-01-15T19:47:55.075Z,5.43
2023-01-15T19:50:25.284Z,4.15
2023-01-15T19:52:53.992Z,3.97
2023-01-15T19:55:22.535Z,6.32
2023-01-15T19:58:02.521Z,3.75
2023-01-15T20:00:30.014Z,3.28
2023-01-15T20:02:57.404Z,6.18
2023-01-15T20:05:25.852Z,5.25
2023-01-15T20:07:52.279Z,3.22
2023-01-15T20:10:20.571Z,3.80
2023-01-15T20:13:05.765Z,5.28
2023-01-15T20:15:32.784Z,6.47
2023-01-15T20:17:59.257Z,4.57
2023-01-15T20:20:26.145Z,4.07
2023-01-15T20:22:52.669Z,3.78
2023-01-15T20:25:19.111Z,6.28
2023-01-15T20:27:45.496Z,4.47
2023-01-15T20:30:14.423Z,4.85
2023-01-15T20:32:43.049Z,3.00
2023-01-15T20:35:15.417Z,4.00
2023-01-15T20:37:41.830Z,4.93
2023-01-15T20:40:09.525Z,4.68
2023-01-15T20:42:54.641Z,6.90
2023-01-15T20:45:21.083Z,3.22
2023-01-15T20:48:06.146Z,3.63
2023-01-15T20:50:36.195Z,3.22
2023-01-15T20:53:04.036Z,2.78
2023-01-15T20:55:38.953Z,3.67
2023-01-15T20:58:12.231Z,5.23
2023-01-15T21:00:38.656Z,3.90
2023-01-15T21:03:05.958Z,7.38
2023-01-15T21:05:32.405Z,3.95
2023-01-15T21:07:58.785Z,4.07
2023-01-15T21:10:25.652Z,4.70
2023-01-15T21:12:52.899Z,5.28
2023-01-15T21:15:19.635Z,3.95
2023-01-15T21:17:47.068Z,6.38
2023-01-15T21:20:15.271Z,4.95
2023-01-15T21:22:41.786Z,5.40
2023-01-15T21:25:13.107Z,6.63
2023-01-15T21:27:39.476Z,4.80
2023-01-15T21:30:07.081Z,5.80
2023-01-15T21:32:33.465Z,3.20
2023-01-15T21:34:59.839Z,2.65
2023-01-15T21:37:26.392Z,6.35
2023-01-15T21:39:52.829Z,3.72
2023-01-15T21:42:40.051Z,4.68
2023-01-15T21:45:07.838Z,4.60
2023-01-15T21:47:36.619Z,3.78
2023-01-15T21:50:05.068Z,7.13
2023-01-15T21:52:33.357Z,6.10
2023-01-15T21:54:59.914Z,3.97
2023-01-15T21:57:28.619Z,5.32
2023-01-15T21:59:55.001Z,5.25
2023-01-15T22:02:23.119Z,6.78
2023-01-15T22:04:49.807Z,5.05
2023-01-15T22:07:17.234Z,5.50
2023-01-15T22:09:43.635Z,6.82
2023-01-15T22:12:10.140Z,8.73
2023-01-15T22:14:36.566Z,3.95
2023-01-15T22:17:04.097Z,3.45
2023-01-15T22:19:31.711Z,4.85
2023-01-15T22:22:00.624Z,5.78
2023-01-15T22:24:28.769Z,5.13
2023-01-15T22:26:55.735Z,8.50
2023-01-15T22:29:23.689Z,7.25
2023-01-15T22:31:50.616Z,5.63
2023-01-15T22:34:17.218Z,5.78
2023-01-15T22:36:43.628Z,6.78
2023-01-15T22:39:10.148Z,4.80
2023-01-15T22:41:55.143Z,3.40
2023-01-15T22:44:21.514Z,6.60
2023-01-15T22:46:50.350Z,7.13
2023-01-15T22:49:17.440Z,6.72
2023-01-15T22:51:43.874Z,8.15
2023-01-15T22:54:10.330Z,5.53
2023-01-15T22:56:36.676Z,8.25
2023-01-15T22:59:03.170Z,5.90
2023-01-15T23:01:29.667Z,5.20
2023-01-15T23:03:56.279Z,6.03
2023-01-15T23:06:25.257Z,5.10
2023-01-15T23:08:59.088Z,7.20
2023-01-15T23:11:26.311Z,4.80
2023-01-15T23:13:52.944Z,5.97
2023-01-15T23:16:19.792Z,7.00
2023-01-15T23:18:46.212Z,4.72
2023-01-15T23:21:15.593Z,4.88
2023-01-15T23:23:41.979Z,7.07
2023-01-15T23:26:13.800Z,4.28
2023-01-15T23:28:40.502Z,6.50
2023-01-15T23:31:06.995Z,6.32
2023-01-15T23:33:33.697Z,7.82
2023-01-15T23:36:00.162Z,7.75
2023-01-15T23:38:27.005Z,5.93
2023-01-15T23:40:53.637Z,8.25
2023-01-15T23:43:38.790Z,5.80
2023-01-15T23:46:21.980Z,7.13
2023-01-15T23:48:48.614Z,5.75
2023-01-15T23:51:15.156Z,5.32
2023-01-15T23:53:41.671Z,6.18
2023-01-15T23:56:08.086Z,6.78
2023-01-15T23:58:34.471Z,8.73
